Ana Sayfa
METAR-TAF:

METAR-TAF

Havaalanları :

Easton, Maryland, Amerika Birleşik Devletleri

Enlem: 38-48N, Boylam: 076-04W, yükseklik: 22 m

Güncel hava durumu gözlemi

Rapor saat 19:50 UTC de 13 dakika önce yapıldı.
Rüzgar doğudan 8 kt
Sıcaklık 8°C
Nem 87%
Basınç 1014 hPa
Görüş mesafesi: 16.1 km
1200 ft yükseklikte çok bulutlu

METAR: KESN 311950Z 08008KT 10SM OVC012 08/06 A2995

Saat: 16:03 (20:03 UTC)


TAF: eksik

4.000'den fazla havaalanı için hava durumu gözlemleri ve tahminleri (METAR ve TAF raporları).

Kullanılabilir istasyonlar harita üzerinde sarı ve kırmızı noktalarla gösterilir.

İstasyonun adını görmek için fareyi noktanın üzerinde gezdirin.

Sonrasında hava gözlem ve tahminlerini görmek için tıklayın.

Haritayı değiştirmek için: yaklaştırmak için siyah artı işaretli yeşil düğmeye ve uzaklaştırmak için de eksi işaretli düğmeye hızla tıklayın; bitişik haritalar için yeşil okları kullanın.


METAR-TAF: